createdAt,value
2022-12-06T04:48:34.017Z,87.87
2022-12-06T04:49:37.658Z,88.09
2022-12-06T04:50:53.280Z,87.83
2022-12-06T04:51:58.624Z,88.23
2022-12-06T04:53:02.045Z,88.28
2022-12-06T04:54:07.790Z,89.05
2022-12-06T04:55:12.738Z,89.25
2022-12-06T04:56:15.284Z,89.09
2022-12-06T04:57:17.905Z,88.68
2022-12-06T04:58:21.261Z,87.49
2022-12-06T04:59:24.231Z,87.82
2022-12-06T05:00:30.337Z,88.25
2022-12-06T05:01:42.482Z,88.73
2022-12-06T05:02:46.129Z,88.30
2022-12-06T05:03:50.028Z,88.57
2022-12-06T05:04:52.262Z,88.55
2022-12-06T05:05:55.195Z,88.10
2022-12-06T05:06:57.379Z,87.54
2022-12-06T05:08:02.216Z,87.78
2022-12-06T05:09:05.631Z,88.06
2022-12-06T05:10:08.831Z,87.50
2022-12-06T05:11:13.297Z,88.25
2022-12-06T05:12:16.908Z,87.23
2022-12-06T05:13:20.976Z,87.24
2022-12-06T05:14:24.794Z,87.28
2022-12-06T05:15:29.406Z,87.82
2022-12-06T05:16:33.554Z,87.36
2022-12-06T05:17:35.793Z,87.33
2022-12-06T05:18:39.130Z,86.90
2022-12-06T05:19:43.459Z,86.98
2022-12-06T05:20:46.081Z,87.38
2022-12-06T05:21:56.156Z,87.02
2022-12-06T05:22:58.803Z,86.84
2022-12-06T05:24:00.876Z,87.00
2022-12-06T05:25:03.457Z,86.63
2022-12-06T05:26:13.844Z,86.77
2022-12-06T05:27:16.167Z,86.59
2022-12-06T05:28:18.348Z,87.27
2022-12-06T05:29:21.364Z,86.99
2022-12-06T05:30:23.529Z,86.54
2022-12-06T05:31:27.074Z,87.25
2022-12-06T05:32:33.936Z,87.00
2022-12-06T05:33:38.647Z,87.36
2022-12-06T05:34:41.749Z,87.17
2022-12-06T05:35:45.480Z,86.95
2022-12-06T05:36:50.494Z,86.41
2022-12-06T05:37:54.104Z,86.99
2022-12-06T05:38:56.558Z,87.40
2022-12-06T05:39:59.987Z,86.99
2022-12-06T05:41:04.551Z,87.21
2022-12-06T05:42:06.959Z,87.63
2022-12-06T05:43:12.306Z,87.54
2022-12-06T05:44:18.517Z,86.83
2022-12-06T05:45:24.350Z,86.14
2022-12-06T05:46:27.846Z,86.03
2022-12-06T05:47:30.847Z,86.61
2022-12-06T05:48:34.026Z,85.94
2022-12-06T05:49:37.959Z,86.19
2022-12-06T05:50:41.325Z,86.90
2022-12-06T05:51:44.834Z,88.53
2022-12-06T05:52:50.702Z,88.69
2022-12-06T05:53:54.511Z,88.21
2022-12-06T05:54:57.143Z,87.86
2022-12-06T05:56:24.521Z,88.44
2022-12-06T05:57:27.159Z,87.82
2022-12-06T05:58:29.313Z,87.31
2022-12-06T05:59:31.288Z,87.25
2022-12-06T06:00:33.382Z,86.40
2022-12-06T06:01:48.419Z,86.51
2022-12-06T06:02:51.880Z,86.96
2022-12-06T06:04:21.161Z,86.09
2022-12-06T06:05:23.875Z,84.98
2022-12-06T06:06:26.527Z,85.19
2022-12-06T06:07:29.694Z,85.08
2022-12-06T06:09:00.040Z,85.50
2022-12-06T06:10:03.038Z,85.58
2022-12-06T06:11:08.358Z,84.52
2022-12-06T06:12:12.920Z,84.43
2022-12-06T06:13:16.541Z,85.12
2022-12-06T06:14:21.289Z,84.31
2022-12-06T06:15:32.124Z,84.81
2022-12-06T06:16:34.966Z,84.52
2022-12-06T06:17:43.466Z,85.07
2022-12-06T06:18:48.677Z,84.81
2022-12-06T06:19:56.987Z,84.76
2022-12-06T06:21:01.712Z,84.34
2022-12-06T06:22:12.921Z,84.36
2022-12-06T06:23:30.616Z,84.41
2022-12-06T06:24:45.403Z,84.98
2022-12-06T06:25:49.080Z,84.85
2022-12-06T06:26:53.038Z,85.47
2022-12-06T06:27:55.295Z,85.50
2022-12-06T06:28:57.580Z,85.10
2022-12-06T06:30:02.768Z,85.65
2022-12-06T06:31:06.250Z,86.03
2022-12-06T06:32:08.437Z,85.98
2022-12-06T06:33:13.592Z,85.90
2022-12-06T06:34:16.296Z,85.54
2022-12-06T06:35:21.153Z,84.74
2022-12-06T06:36:23.209Z,85.34
2022-12-06T06:37:26.169Z,85.28
2022-12-06T06:38:30.643Z,85.07
2022-12-06T06:39:37.581Z,84.81
2022-12-06T06:40:40.198Z,84.34
2022-12-06T06:41:42.861Z,84.66
2022-12-06T06:42:48.899Z,84.80
2022-12-06T06:43:52.000Z,84.34
2022-12-06T06:44:56.509Z,84.54
2022-12-06T06:46:02.496Z,84.07
2022-12-06T06:47:08.034Z,83.77
2022-12-06T06:48:12.288Z,83.53
2022-12-06T06:49:22.098Z,83.73
2022-12-06T06:50:26.668Z,83.71
2022-12-06T06:51:35.410Z,84.00
2022-12-06T06:52:39.025Z,83.85
2022-12-06T06:53:43.753Z,83.52
2022-12-06T06:55:06.531Z,83.47
2022-12-06T06:56:09.096Z,83.74
2022-12-06T06:57:17.669Z,84.49
2022-12-06T06:58:21.829Z,83.49
2022-12-06T06:59:25.843Z,83.20
2022-12-06T07:00:33.208Z,84.01
2022-12-06T07:01:38.604Z,83.55
2022-12-06T07:02:42.644Z,82.99
2022-12-06T07:03:46.395Z,82.52
2022-12-06T07:04:51.048Z,83.11
2022-12-06T07:05:57.539Z,82.78
2022-12-06T07:07:01.516Z,83.23
2022-12-06T07:08:05.823Z,83.23
2022-12-06T07:09:09.780Z,82.73
2022-12-06T07:10:13.576Z,81.90
2022-12-06T07:11:17.514Z,80.94
2022-12-06T07:12:22.686Z,80.03
2022-12-06T07:13:31.876Z,79.36
2022-12-06T07:14:35.122Z,79.44
2022-12-06T07:15:38.357Z,79.04
2022-12-06T07:16:41.111Z,78.88
2022-12-06T07:17:46.119Z,78.43
2022-12-06T07:18:50.881Z,78.17
2022-12-06T07:19:57.403Z,76.92
2022-12-06T07:21:03.914Z,77.01
2022-12-06T07:22:15.856Z,76.94
2022-12-06T07:23:18.486Z,76.71
2022-12-06T07:24:22.591Z,76.23
2022-12-06T07:25:28.964Z,75.46
2022-12-06T07:26:32.517Z,75.53
2022-12-06T07:27:39.795Z,75.73
2022-12-06T07:28:46.044Z,74.72
2022-12-06T07:29:48.919Z,73.89
2022-12-06T07:30:56.930Z,73.19
2022-12-06T07:32:00.083Z,73.10
2022-12-06T07:33:03.750Z,71.73
2022-12-06T07:34:10.649Z,71.73
2022-12-06T07:35:15.285Z,70.81
2022-12-06T07:36:20.796Z,66.34
2022-12-06T07:37:26.569Z,64.07
2022-12-06T07:38:31.993Z,63.16
2022-12-06T07:39:38.902Z,62.40
2022-12-06T07:42:29.298Z,62.50
2022-12-06T07:43:52.702Z,61.99
2022-12-06T07:45:03.674Z,63.05
2022-12-06T07:46:13.440Z,63.58
2022-12-06T07:47:18.102Z,64.14
2022-12-06T07:48:22.065Z,65.17
2022-12-06T07:49:30.515Z,64.72
2022-12-06T07:50:37.191Z,64.88
2022-12-06T07:51:46.076Z,62.45
2022-12-06T07:52:56.492Z,60.94
2022-12-06T07:54:05.090Z,59.28
2022-12-06T07:55:09.738Z,58.51
2022-12-06T07:56:13.203Z,58.00
2022-12-06T07:57:19.551Z,58.72
2022-12-06T07:58:44.998Z,57.69
2022-12-06T07:59:52.511Z,58.90
2022-12-06T08:00:57.623Z,60.45
2022-12-06T08:02:02.427Z,61.33
2022-12-06T08:03:12.733Z,62.79
2022-12-06T08:04:16.660Z,62.52
2022-12-06T08:05:25.713Z,63.87
2022-12-06T08:06:31.388Z,64.28
2022-12-06T08:07:35.405Z,64.99
2022-12-06T08:08:40.095Z,65.58
2022-12-06T08:09:45.779Z,66.28
2022-12-06T08:10:51.186Z,66.92
2022-12-06T08:12:00.830Z,67.56
2022-12-06T08:13:05.220Z,67.51
2022-12-06T08:14:18.682Z,66.80
2022-12-06T08:15:26.030Z,64.93
2022-12-06T08:16:29.650Z,63.89
2022-12-06T08:17:34.260Z,62.65
2022-12-06T08:18:37.772Z,62.15
2022-12-06T08:19:47.145Z,61.92
2022-12-06T08:20:54.943Z,61.37
2022-12-06T08:22:01.952Z,60.41
2022-12-06T08:23:09.053Z,60.31
2022-12-06T08:24:16.834Z,60.38
2022-12-06T08:25:32.310Z,60.87
2022-12-06T08:26:37.486Z,61.85
2022-12-06T08:27:52.613Z,62.76
2022-12-06T08:28:58.006Z,63.64
2022-12-06T08:30:09.097Z,63.01
2022-12-06T08:31:24.379Z,63.16
2022-12-06T08:32:32.058Z,64.47
2022-12-06T08:33:38.051Z,64.43
2022-12-06T08:34:49.154Z,63.61
2022-12-06T08:35:56.532Z,63.49
2022-12-06T08:37:06.514Z,63.10
2022-12-06T08:38:14.311Z,62.70
2022-12-06T08:39:21.246Z,61.44
2022-12-06T08:40:26.437Z,62.19
2022-12-06T08:41:48.892Z,62.76
2022-12-06T08:42:57.244Z,61.60
2022-12-06T08:45:38.897Z,61.92
2022-12-06T08:46:51.925Z,62.66
2022-12-06T08:47:57.800Z,61.89
2022-12-06T08:49:06.161Z,61.94
2022-12-06T08:50:11.540Z,61.14
2022-12-06T08:51:24.596Z,61.12
2022-12-06T08:52:38.194Z,61.26
2022-12-06T08:53:56.179Z,61.21
2022-12-06T08:55:01.983Z,61.37
2022-12-06T08:56:10.705Z,60.58
2022-12-06T08:57:27.636Z,60.43
2022-12-06T08:58:38.469Z,60.28
2022-12-06T08:59:45.229Z,60.86
2022-12-06T09:00:53.943Z,60.16
2022-12-06T09:02:03.618Z,62.10
2022-12-06T09:03:08.770Z,61.97
2022-12-06T09:04:26.115Z,61.26
2022-12-06T09:05:37.712Z,60.83
2022-12-06T09:06:43.442Z,60.55
2022-12-06T09:07:52.357Z,60.43
2022-12-06T09:09:01.420Z,60.43
2022-12-06T09:10:19.673Z,60.40
2022-12-06T09:11:27.121Z,60.38
2022-12-06T09:12:36.063Z,60.57
2022-12-06T09:13:50.881Z,60.03
2022-12-06T09:14:56.046Z,59.93
2022-12-06T09:16:15.074Z,60.47
2022-12-06T09:17:22.745Z,60.02
2022-12-06T09:18:26.824Z,61.03
2022-12-06T09:19:30.841Z,61.24
2022-12-06T09:20:47.142Z,60.69
2022-12-06T09:21:56.342Z,60.30
2022-12-06T09:23:09.149Z,60.37
2022-12-06T09:24:17.930Z,60.27
2022-12-06T09:25:25.355Z,61.23
2022-12-06T09:26:32.254Z,61.53
2022-12-06T09:27:49.279Z,61.83
2022-12-06T09:28:56.111Z,61.10
2022-12-06T09:30:05.396Z,61.36
2022-12-06T09:31:12.782Z,62.74
2022-12-06T09:32:23.274Z,63.42
2022-12-06T09:33:30.043Z,63.56
2022-12-06T09:34:34.631Z,63.41
2022-12-06T09:35:39.502Z,63.73
2022-12-06T09:37:05.969Z,63.84
2022-12-06T09:38:12.467Z,63.72
2022-12-06T09:39:46.468Z,64.59
2022-12-06T09:41:14.178Z,63.78
2022-12-06T09:42:55.988Z,64.77
2022-12-06T09:44:18.088Z,65.26
2022-12-06T09:45:40.431Z,64.27
2022-12-06T09:47:18.013Z,64.92
2022-12-06T09:48:50.532Z,64.41
2022-12-06T09:50:33.270Z,65.14
2022-12-06T09:52:08.674Z,65.37
2022-12-06T09:53:28.009Z,65.62
2022-12-06T09:54:52.594Z,65.47
2022-12-06T09:56:17.556Z,65.87
2022-12-06T09:58:11.389Z,64.88
2022-12-06T09:59:32.697Z,65.68
2022-12-06T10:00:47.114Z,65.12
2022-12-06T10:02:23.044Z,65.05
2022-12-06T10:03:41.660Z,65.83
2022-12-06T10:05:05.096Z,65.54
2022-12-06T10:06:20.731Z,65.87
2022-12-06T10:07:46.176Z,64.58
2022-12-06T10:09:19.962Z,65.49
2022-12-06T10:10:31.314Z,65.58
2022-12-06T10:11:57.823Z,65.53
2022-12-06T10:13:35.925Z,65.15
2022-12-06T10:15:18.406Z,64.43
2022-12-06T10:16:34.401Z,64.83
2022-12-06T10:18:09.266Z,64.49
2022-12-06T10:19:27.748Z,63.97
2022-12-06T10:21:01.820Z,64.30
2022-12-06T10:22:12.951Z,63.96
2022-12-06T10:24:01.430Z,64.08
2022-12-06T10:25:13.867Z,63.82
2022-12-06T10:26:29.847Z,64.83
2022-12-06T10:27:47.917Z,64.17
2022-12-06T10:29:09.336Z,63.90
2022-12-06T10:30:16.232Z,64.06
2022-12-06T10:31:26.215Z,63.23
2022-12-06T10:32:47.016Z,63.58
2022-12-06T10:34:01.237Z,63.11
2022-12-06T10:35:40.672Z,63.48
2022-12-06T10:36:47.587Z,63.01
2022-12-06T10:37:49.555Z,62.87
2022-12-06T10:39:09.576Z,62.87
2022-12-06T10:40:44.711Z,61.78
2022-12-06T10:42:15.023Z,61.57
2022-12-06T10:43:20.935Z,62.18
2022-12-06T10:44:46.236Z,62.84
2022-12-06T10:46:27.314Z,61.83
2022-12-06T10:47:59.625Z,61.67
2022-12-06T10:49:24.933Z,61.31
2022-12-06T10:50:33.270Z,61.67
2022-12-06T10:51:44.789Z,60.34
2022-12-06T10:53:02.462Z,60.99
2022-12-06T10:54:24.231Z,61.11
2022-12-06T10:55:50.254Z,60.31
2022-12-06T10:57:32.748Z,60.94
2022-12-06T10:59:45.335Z,59.65
2022-12-06T11:00:57.275Z,60.67
2022-12-06T11:02:15.057Z,59.83
2022-12-06T11:03:24.275Z,59.88
2022-12-06T11:04:32.512Z,60.19
2022-12-06T11:05:59.381Z,60.61
2022-12-06T11:07:20.237Z,60.73
2022-12-06T11:08:38.939Z,61.34
2022-12-06T11:09:44.661Z,61.58
2022-12-06T11:10:49.650Z,60.63
2022-12-06T11:11:53.467Z,60.90
2022-12-06T11:13:14.120Z,61.10
2022-12-06T11:14:30.621Z,60.75
2022-12-06T11:15:42.708Z,61.01
2022-12-06T11:17:07.538Z,60.58
2022-12-06T11:18:19.664Z,59.95
2022-12-06T11:19:44.843Z,59.96
2022-12-06T11:20:53.609Z,60.13
2022-12-06T11:22:34.362Z,60.40
2022-12-06T11:23:52.282Z,59.88
2022-12-06T11:25:02.759Z,60.12
2022-12-06T11:26:32.435Z,60.32
2022-12-06T11:27:42.846Z,60.71
2022-12-06T11:28:55.591Z,60.38
2022-12-06T11:29:59.475Z,60.40
2022-12-06T11:31:06.954Z,60.81
2022-12-06T11:32:09.641Z,60.46
2022-12-06T11:33:11.698Z,60.41
2022-12-06T11:34:25.151Z,60.46
2022-12-06T11:35:28.747Z,60.82
2022-12-06T11:36:34.155Z,60.61
2022-12-06T11:37:44.155Z,60.11
2022-12-06T11:38:47.521Z,60.93
2022-12-06T11:39:59.874Z,60.92
2022-12-06T11:41:12.296Z,60.70
2022-12-06T11:42:23.360Z,60.82
2022-12-06T11:43:32.923Z,60.88
2022-12-06T11:45:10.967Z,61.14
2022-12-06T11:46:15.951Z,60.57
2022-12-06T11:47:25.543Z,61.72
2022-12-06T11:48:35.238Z,60.81
2022-12-06T11:49:42.110Z,61.66
2022-12-06T11:50:48.783Z,61.67
2022-12-06T11:51:53.411Z,61.53
2022-12-06T11:53:02.933Z,60.71
2022-12-06T11:54:17.484Z,61.27
2022-12-06T11:55:27.074Z,61.79
2022-12-06T11:56:38.419Z,61.26
2022-12-06T11:57:55.136Z,61.14
2022-12-06T11:59:35.462Z,61.96
2022-12-06T12:01:02.184Z,61.46
2022-12-06T12:02:05.636Z,61.44
2022-12-06T12:03:29.127Z,61.34
2022-12-06T12:04:40.383Z,62.32
2022-12-06T12:05:43.278Z,62.40
2022-12-06T12:06:48.994Z,61.77
2022-12-06T12:07:56.650Z,62.42
2022-12-06T12:09:06.311Z,62.52
2022-12-06T12:10:38.790Z,62.93
2022-12-06T12:11:42.500Z,62.86
2022-12-06T12:13:08.717Z,62.61
2022-12-06T12:14:24.610Z,62.71
2022-12-06T12:15:27.894Z,62.88
2022-12-06T12:16:38.290Z,63.17
2022-12-06T12:17:52.280Z,62.77
2022-12-06T12:18:55.460Z,62.62
2022-12-06T12:20:05.521Z,62.97
2022-12-06T12:21:08.585Z,63.50
2022-12-06T12:22:22.223Z,63.34
2022-12-06T12:23:48.374Z,63.34
2022-12-06T12:26:22.196Z,64.03
2022-12-06T12:27:35.632Z,63.34
2022-12-06T12:28:42.744Z,63.71
2022-12-06T12:29:45.371Z,64.19
2022-12-06T12:30:59.320Z,64.95
2022-12-06T12:32:11.660Z,65.70
2022-12-06T12:33:20.000Z,65.81
2022-12-06T12:34:30.020Z,66.20
2022-12-06T12:35:55.134Z,65.53
2022-12-06T12:37:04.700Z,66.13
2022-12-06T12:38:12.557Z,66.62
2022-12-06T12:39:25.497Z,66.49
2022-12-06T12:40:40.434Z,66.70
2022-12-06T12:41:46.309Z,67.26
2022-12-06T12:43:00.652Z,68.23
2022-12-06T12:46:10.432Z,69.13
2022-12-06T12:47:22.736Z,68.49
2022-12-06T12:48:26.528Z,69.40
2022-12-06T12:49:39.476Z,68.84
2022-12-06T12:50:56.558Z,69.10
2022-12-06T12:52:00.783Z,70.37
2022-12-06T12:53:04.460Z,70.14
2022-12-06T12:54:34.266Z,69.62
2022-12-06T12:55:41.709Z,69.94
2022-12-06T12:56:46.598Z,70.95
2022-12-06T12:57:53.634Z,71.19
2022-12-06T12:58:58.184Z,71.03
2022-12-06T13:00:01.377Z,71.23
2022-12-06T13:01:15.118Z,72.13
2022-12-06T13:02:38.539Z,72.33
2022-12-06T13:03:56.662Z,72.15
2022-12-06T13:05:34.566Z,72.22
2022-12-06T13:06:43.475Z,73.66
2022-12-06T13:07:50.256Z,73.31
2022-12-06T13:08:56.396Z,73.60
2022-12-06T13:10:04.387Z,73.79
2022-12-06T13:11:10.549Z,74.45
2022-12-06T13:12:43.045Z,74.35
2022-12-06T13:13:54.281Z,75.08
2022-12-06T13:15:06.554Z,75.39
2022-12-06T13:16:25.074Z,75.92
2022-12-06T13:17:29.796Z,75.80
2022-12-06T13:19:14.526Z,76.20
2022-12-06T13:20:31.606Z,77.35
2022-12-06T13:21:43.094Z,77.33
2022-12-06T13:22:49.241Z,78.10
2022-12-06T13:24:02.606Z,78.01
2022-12-06T13:25:09.417Z,77.89
2022-12-06T13:26:30.593Z,78.81
2022-12-06T13:27:39.107Z,78.74
2022-12-06T13:28:50.588Z,79.47
2022-12-06T13:30:01.952Z,79.81
2022-12-06T13:31:11.918Z,79.40
2022-12-06T13:32:20.533Z,79.66
2022-12-06T13:33:26.418Z,78.69
2022-12-06T13:34:37.826Z,79.78
2022-12-06T13:35:45.813Z,80.04
2022-12-06T13:36:50.566Z,80.13
2022-12-06T13:37:59.756Z,79.77
2022-12-06T13:39:35.759Z,80.00
2022-12-06T13:41:05.883Z,80.53
2022-12-06T13:42:42.917Z,80.45
2022-12-06T13:44:33.536Z,79.56
2022-12-06T13:45:43.501Z,79.51
2022-12-06T13:46:47.275Z,80.49
2022-12-06T13:47:51.418Z,80.75
2022-12-06T13:48:58.244Z,81.36
2022-12-06T13:50:09.144Z,80.34
2022-12-06T13:51:39.248Z,80.73
2022-12-06T13:52:48.385Z,80.48
2022-12-06T13:54:12.423Z,80.26
2022-12-06T13:55:25.535Z,79.59
2022-12-06T13:56:29.363Z,79.41
2022-12-06T13:57:32.321Z,80.34
2022-12-06T13:58:40.998Z,79.51
2022-12-06T13:59:43.442Z,80.75
2022-12-06T14:00:53.731Z,80.09
2022-12-06T14:01:58.881Z,80.34
2022-12-06T14:03:19.415Z,79.04
2022-12-06T14:07:00.444Z,79.10
2022-12-06T14:08:02.856Z,78.90
2022-12-06T14:09:14.183Z,80.14
2022-12-06T14:10:16.770Z,79.14
2022-12-06T14:11:39.747Z,80.28
2022-12-06T14:12:45.486Z,79.83
2022-12-06T14:14:02.030Z,80.66
2022-12-06T14:15:19.239Z,80.70
2022-12-06T14:16:47.637Z,81.04
2022-12-06T14:18:03.005Z,79.69
2022-12-06T14:19:29.387Z,80.31
2022-12-06T14:20:32.243Z,81.50
2022-12-06T14:21:37.817Z,81.06
2022-12-06T14:22:47.221Z,81.19
2022-12-06T14:23:53.553Z,81.73
2022-12-06T14:25:19.236Z,82.39
2022-12-06T14:26:30.039Z,81.17
2022-12-06T14:27:36.376Z,81.40
2022-12-06T14:28:39.149Z,82.33
2022-12-06T14:29:43.957Z,82.58
2022-12-06T14:30:47.273Z,82.01
2022-12-06T14:31:52.355Z,81.51
2022-12-06T14:32:59.704Z,81.34
2022-12-06T14:34:02.052Z,81.09
2022-12-06T14:35:16.211Z,81.25
2022-12-06T14:36:40.191Z,81.17
2022-12-06T14:37:57.293Z,81.07
2022-12-06T14:39:12.273Z,81.23
2022-12-06T14:40:56.440Z,81.73
2022-12-06T14:42:23.981Z,81.17
2022-12-06T14:43:29.606Z,81.10
2022-12-06T14:44:32.666Z,79.67
2022-12-06T14:45:45.748Z,79.53
2022-12-06T14:46:49.602Z,79.42
2022-12-06T14:47:52.026Z,79.02
2022-12-06T14:49:12.657Z,78.31
2022-12-06T14:50:33.998Z,78.22
2022-12-06T14:51:41.229Z,78.55
2022-12-06T14:53:06.601Z,78.75
2022-12-06T14:54:28.108Z,78.79
2022-12-06T14:55:53.283Z,78.18
2022-12-06T14:56:56.638Z,77.76
2022-12-06T14:58:14.660Z,78.29
2022-12-06T14:59:46.155Z,78.00
2022-12-06T15:01:17.329Z,76.33
2022-12-06T15:02:24.952Z,77.12
2022-12-06T15:03:35.236Z,76.37
2022-12-06T15:04:39.823Z,76.86
2022-12-06T15:05:49.822Z,77.54
2022-12-06T15:06:56.247Z,76.54
2022-12-06T15:07:58.388Z,77.33
2022-12-06T15:09:01.687Z,77.07
2022-12-06T15:10:32.574Z,76.90
2022-12-06T15:12:05.619Z,75.97
2022-12-06T15:13:17.151Z,76.21
2022-12-06T15:14:40.161Z,75.66
2022-12-06T15:15:46.260Z,75.13
2022-12-06T15:17:00.319Z,75.67
2022-12-06T15:18:16.525Z,76.28
2022-12-06T15:19:18.490Z,76.08
2022-12-06T15:20:20.579Z,75.93
2022-12-06T15:21:22.886Z,75.38
2022-12-06T15:22:28.086Z,74.80
2022-12-06T15:23:56.309Z,75.53
2022-12-06T15:25:01.001Z,75.60
2022-12-06T15:26:08.103Z,76.12
2022-12-06T15:27:13.275Z,75.59
2022-12-06T15:28:19.883Z,75.63
2022-12-06T15:29:23.126Z,75.24
2022-12-06T15:30:25.217Z,74.75
2022-12-06T15:31:28.699Z,75.76
2022-12-06T15:32:31.763Z,76.01
2022-12-06T15:33:33.938Z,75.50
2022-12-06T15:34:36.224Z,75.42
2022-12-06T15:35:38.845Z,75.30
2022-12-06T15:36:41.332Z,75.27
2022-12-06T15:37:49.952Z,74.90
2022-12-06T15:38:55.669Z,73.87
2022-12-06T15:40:05.140Z,73.90
2022-12-06T15:41:19.151Z,73.01
2022-12-06T15:42:26.852Z,73.29
2022-12-06T15:43:35.037Z,72.48
2022-12-06T15:44:43.047Z,72.27
2022-12-06T15:45:49.718Z,72.67
2022-12-06T15:46:53.305Z,72.39
2022-12-06T15:47:56.834Z,71.61
2022-12-06T15:49:00.870Z,72.09
2022-12-06T15:50:04.913Z,71.78
2022-12-06T15:51:21.078Z,70.71
2022-12-06T15:52:25.002Z,69.89
2022-12-06T15:53:36.598Z,69.13
2022-12-06T15:54:39.417Z,69.89
2022-12-06T15:55:41.833Z,68.51
2022-12-06T15:56:46.197Z,68.37
2022-12-06T15:57:51.592Z,69.06
2022-12-06T15:58:54.929Z,67.97
2022-12-06T16:00:03.282Z,67.69
2022-12-06T16:01:24.430Z,67.85
2022-12-06T16:02:30.508Z,67.94
2022-12-06T16:03:38.993Z,67.14
2022-12-06T16:04:42.949Z,65.94
2022-12-06T16:05:49.233Z,65.74
2022-12-06T16:06:51.861Z,65.04
2022-12-06T16:07:54.107Z,64.08
2022-12-06T16:08:57.140Z,64.55
2022-12-06T16:10:00.777Z,64.71
2022-12-06T16:11:11.480Z,64.88
2022-12-06T16:12:17.952Z,64.47
2022-12-06T16:13:23.703Z,64.81
2022-12-06T16:14:35.273Z,64.80
2022-12-06T16:16:06.443Z,64.09
2022-12-06T16:17:22.183Z,64.77
2022-12-06T16:19:17.703Z,63.65
2022-12-06T16:20:32.614Z,63.96
2022-12-06T16:21:37.821Z,63.20
2022-12-06T16:22:58.379Z,63.38
2022-12-06T16:24:17.487Z,63.49
2022-12-06T16:25:24.467Z,63.27
2022-12-06T16:26:45.736Z,63.67
2022-12-06T16:27:53.893Z,63.56
2022-12-06T16:29:08.240Z,63.91
2022-12-06T16:30:50.046Z,64.05
2022-12-06T16:32:34.092Z,63.27
2022-12-06T16:33:42.792Z,63.70
2022-12-06T16:34:45.584Z,64.26
2022-12-06T16:36:20.290Z,65.01
2022-12-06T16:37:24.060Z,64.34
2022-12-06T16:38:29.935Z,64.90
2022-12-06T16:39:38.355Z,64.36
2022-12-06T16:40:43.202Z,64.39
2022-12-06T16:41:48.820Z,63.71
2022-12-06T16:42:54.460Z,63.79
2022-12-06T16:44:01.273Z,64.15
2022-12-06T16:45:17.794Z,63.71
2022-12-06T16:46:28.893Z,63.47
2022-12-06T16:47:32.349Z,64.18
2022-12-06T16:48:44.057Z,64.37
2022-12-06T16:49:49.325Z,63.49
2022-12-06T16:50:51.890Z,62.82
2022-12-06T16:51:55.257Z,62.44
2022-12-06T16:52:58.028Z,62.36
2022-12-06T16:54:04.739Z,63.87
2022-12-06T16:55:10.496Z,63.40
2022-12-06T16:57:02.282Z,62.86
2022-12-06T16:58:06.675Z,62.75
2022-12-06T16:59:21.357Z,63.43
2022-12-06T17:00:27.988Z,63.21
2022-12-06T17:01:55.684Z,62.43
2022-12-06T17:03:01.023Z,62.62
2022-12-06T17:04:14.240Z,62.80
2022-12-06T17:05:26.031Z,62.96
2022-12-06T17:06:30.606Z,62.57
2022-12-06T17:07:34.252Z,63.72
2022-12-06T17:08:39.857Z,62.60
2022-12-06T17:09:42.368Z,63.04
2022-12-06T17:10:48.067Z,62.60
2022-12-06T17:12:04.740Z,62.25
2022-12-06T17:13:07.531Z,62.40
2022-12-06T17:14:14.370Z,62.41
2022-12-06T17:15:19.918Z,63.01
2022-12-06T17:16:22.339Z,63.12
2022-12-06T17:17:26.301Z,62.82
2022-12-06T17:18:34.376Z,62.63
2022-12-06T17:19:36.669Z,62.12
2022-12-06T17:20:40.173Z,62.98
2022-12-06T17:21:43.609Z,63.34
2022-12-06T17:22:47.674Z,62.59
2022-12-06T17:23:52.000Z,62.89
2022-12-06T17:24:56.915Z,62.07
2022-12-06T17:26:03.598Z,62.19
2022-12-06T17:27:09.041Z,62.68
2022-12-06T17:28:14.239Z,62.75
2022-12-06T17:29:18.140Z,62.84
2022-12-06T17:30:26.582Z,62.83
2022-12-06T17:31:29.887Z,63.06
2022-12-06T17:32:32.488Z,62.89
2022-12-06T17:34:10.363Z,62.92
2022-12-06T17:35:30.702Z,62.88
2022-12-06T17:37:26.143Z,62.48
2022-12-06T17:38:50.906Z,63.49
2022-12-06T17:40:05.082Z,63.52
2022-12-06T17:41:49.937Z,62.51
2022-12-06T17:43:01.900Z,63.16
2022-12-06T17:46:01.163Z,63.67
2022-12-06T17:47:08.655Z,62.88
2022-12-06T17:49:39.808Z,63.67
2022-12-06T17:51:13.921Z,63.48
2022-12-06T17:52:26.766Z,63.06
2022-12-06T17:53:32.325Z,63.09
2022-12-06T17:55:31.309Z,62.69
2022-12-06T17:56:43.492Z,63.73
2022-12-06T17:57:53.868Z,63.47
2022-12-06T21:31:01.185Z,68.50
2022-12-06T21:32:17.910Z,68.84
2022-12-06T21:33:29.436Z,69.38
2022-12-06T21:34:35.660Z,68.43
2022-12-06T21:36:30.316Z,68.39
2022-12-06T21:37:45.724Z,68.95
2022-12-06T21:38:59.526Z,68.24
2022-12-06T21:41:01.759Z,68.58
